createdAt,value
2022-12-29T00:00:46.611Z,8.48
2022-12-29T00:01:33.697Z,7.35
2022-12-29T00:02:20.559Z,8.35
2022-12-29T00:03:07.520Z,8.18
2022-12-29T00:03:54.446Z,8.82
2022-12-29T00:04:41.329Z,8.43
2022-12-29T00:05:28.267Z,9.75
2022-12-29T00:06:15.153Z,8.50
2022-12-29T00:07:02.174Z,8.77
2022-12-29T00:07:49.098Z,8.27
2022-12-29T00:08:41.924Z,9.52
2022-12-29T00:09:28.836Z,8.13
2022-12-29T00:10:15.749Z,8.70
2022-12-29T00:11:02.652Z,9.20
2022-12-29T00:11:51.265Z,8.38
2022-12-29T00:12:56.948Z,8.18
2022-12-29T00:14:03.073Z,8.00
2022-12-29T00:15:10.144Z,8.15
2022-12-29T00:15:57.023Z,11.38
2022-12-29T00:16:45.428Z,9.05
2022-12-29T00:17:32.324Z,8.98
2022-12-29T00:18:19.194Z,8.38
2022-12-29T00:19:06.315Z,9.10
2022-12-29T00:20:12.832Z,8.55
2022-12-29T00:21:19.368Z,10.73
2022-12-29T00:22:24.919Z,9.77
2022-12-29T00:23:30.429Z,9.00
2022-12-29T00:24:28.392Z,10.50
2022-12-29T00:25:34.689Z,7.78
2022-12-29T00:26:40.628Z,8.02
2022-12-29T00:27:49.602Z,9.15
2022-12-29T00:28:55.110Z,8.27
2022-12-29T00:30:00.729Z,8.90
2022-12-29T00:31:06.363Z,9.38
2022-12-29T00:32:11.908Z,10.02
2022-12-29T00:33:17.594Z,8.75
2022-12-29T00:34:23.489Z,10.10
2022-12-29T00:35:13.437Z,9.95
2022-12-29T00:36:05.580Z,7.80
2022-12-29T00:36:52.409Z,9.05
2022-12-29T00:38:02.907Z,8.82
2022-12-29T00:39:12.601Z,10.38
2022-12-29T00:40:18.171Z,14.43
2022-12-29T00:41:37.398Z,9.15
2022-12-29T00:42:42.739Z,8.35
2022-12-29T00:43:48.369Z,8.18
2022-12-29T00:44:35.268Z,8.35
2022-12-29T00:45:22.092Z,11.95
2022-12-29T00:46:11.722Z,8.68
2022-12-29T00:47:04.409Z,9.45
2022-12-29T00:47:51.267Z,10.70
2022-12-29T00:48:56.717Z,9.98
2022-12-29T00:49:43.648Z,8.05
2022-12-29T00:50:30.529Z,8.07
2022-12-29T00:51:17.422Z,10.35
2022-12-29T00:52:10.462Z,9.45
2022-12-29T00:52:57.271Z,8.38
2022-12-29T00:53:44.100Z,9.07
2022-12-29T00:54:33.142Z,9.40
2022-12-29T00:55:20.007Z,9.60
2022-12-29T00:56:06.938Z,9.30
2022-12-29T00:56:54.581Z,9.27
2022-12-29T00:57:41.454Z,8.40
2022-12-29T00:58:32.008Z,10.00
2022-12-29T00:59:19.644Z,10.95
2022-12-29T01:00:07.196Z,8.38
2022-12-29T01:00:54.060Z,8.63
2022-12-29T01:01:41.506Z,9.60
2022-12-29T01:02:29.757Z,9.00
2022-12-29T01:03:16.743Z,10.60
2022-12-29T01:04:05.005Z,9.23
2022-12-29T01:04:51.846Z,10.23
2022-12-29T01:05:38.967Z,9.52
2022-12-29T01:06:25.836Z,9.50
2022-12-29T01:07:12.668Z,9.07
2022-12-29T01:07:59.519Z,12.23
2022-12-29T01:08:46.337Z,10.52
2022-12-29T01:09:51.915Z,9.70
2022-12-29T01:10:38.763Z,11.02
2022-12-29T01:11:25.686Z,9.45
2022-12-29T01:12:12.784Z,12.30
2022-12-29T01:12:59.697Z,11.18
2022-12-29T01:13:46.568Z,9.38
2022-12-29T01:14:33.900Z,8.90
2022-12-29T01:15:20.987Z,9.70
2022-12-29T01:16:08.496Z,11.57
2022-12-29T01:16:56.208Z,9.50
2022-12-29T01:17:43.323Z,8.38
2022-12-29T01:18:30.329Z,9.43
2022-12-29T01:19:18.222Z,11.23
2022-12-29T01:20:05.985Z,11.18
2022-12-29T01:21:06.469Z,9.13
2022-12-29T01:21:54.104Z,9.30
2022-12-29T01:22:41.022Z,10.20
2022-12-29T01:23:28.148Z,9.05
2022-12-29T01:24:16.188Z,12.45
2022-12-29T01:25:04.765Z,11.82
2022-12-29T01:25:51.587Z,10.40
2022-12-29T01:26:38.523Z,9.45
2022-12-29T01:27:25.380Z,9.23
2022-12-29T01:28:12.259Z,10.35
2022-12-29T01:28:59.091Z,10.73
2022-12-29T01:29:45.926Z,16.12
2022-12-29T01:30:33.908Z,8.75
2022-12-29T01:31:20.807Z,12.10
2022-12-29T01:32:08.139Z,8.48
2022-12-29T01:32:55.081Z,11.48
2022-12-29T01:33:42.112Z,13.20
2022-12-29T01:34:28.988Z,8.68
2022-12-29T01:35:15.899Z,10.63
2022-12-29T01:36:06.665Z,9.80
2022-12-29T01:36:54.138Z,9.88
2022-12-29T01:37:41.018Z,11.27
2022-12-29T01:38:27.901Z,10.48
2022-12-29T01:39:14.708Z,11.27
2022-12-29T01:40:01.792Z,11.35
2022-12-29T01:40:49.370Z,10.13
2022-12-29T01:41:36.228Z,11.55
2022-12-29T01:42:25.634Z,10.13
2022-12-29T01:43:14.528Z,11.88
2022-12-29T01:44:02.865Z,11.35
2022-12-29T01:45:01.829Z,11.63
2022-12-29T01:45:53.186Z,11.30
2022-12-29T01:46:40.587Z,9.95
2022-12-29T01:47:41.191Z,11.55
2022-12-29T01:48:28.116Z,11.00
2022-12-29T01:49:20.710Z,9.35
2022-12-29T01:50:26.447Z,10.50
2022-12-29T01:51:13.281Z,8.95
2022-12-29T01:52:04.974Z,10.07
2022-12-29T01:53:08.648Z,9.52
2022-12-29T01:53:57.018Z,12.27
2022-12-29T01:54:51.430Z,10.02
2022-12-29T01:56:09.634Z,10.43
2022-12-29T01:57:02.599Z,10.93
2022-12-29T01:57:51.648Z,11.73
2022-12-29T01:58:41.549Z,11.45
2022-12-29T01:59:32.959Z,11.10
2022-12-29T02:00:20.559Z,11.07
2022-12-29T02:01:07.590Z,11.05
2022-12-29T02:01:54.815Z,11.10
2022-12-29T02:02:45.459Z,9.60
2022-12-29T02:04:20.611Z,10.20
2022-12-29T02:05:21.445Z,10.98
2022-12-29T02:07:16.440Z,10.70
2022-12-29T02:08:04.363Z,11.70
2022-12-29T02:08:54.534Z,10.60
2022-12-29T02:09:41.698Z,11.73
2022-12-29T02:10:31.812Z,12.20
2022-12-29T02:11:18.767Z,9.43
2022-12-29T02:12:05.706Z,11.52
2022-12-29T02:12:53.160Z,10.75
2022-12-29T02:13:40.021Z,9.85
2022-12-29T02:14:26.915Z,10.93
2022-12-29T02:15:13.984Z,11.73
2022-12-29T02:16:20.616Z,10.50
2022-12-29T02:17:22.113Z,12.25
2022-12-29T02:18:37.906Z,11.60
2022-12-29T02:19:53.348Z,10.95
2022-12-29T02:21:06.966Z,9.60
2022-12-29T02:22:02.118Z,11.43
2022-12-29T02:23:12.979Z,10.20
2022-12-29T02:24:11.748Z,11.70
2022-12-29T02:25:20.067Z,10.75
2022-12-29T02:26:40.847Z,11.30
2022-12-29T02:27:52.118Z,12.15
2022-12-29T02:29:13.433Z,10.38
2022-12-29T02:30:35.388Z,10.48
2022-12-29T02:31:29.500Z,13.30
2022-12-29T02:32:21.657Z,11.73
2022-12-29T02:33:20.719Z,12.73
2022-12-29T02:34:07.459Z,10.85
2022-12-29T02:35:06.750Z,10.18
2022-12-29T02:36:23.520Z,11.10
2022-12-29T02:37:35.069Z,11.10
2022-12-29T02:38:33.077Z,11.07
2022-12-29T02:39:36.479Z,11.95
2022-12-29T02:40:46.308Z,11.25
2022-12-29T02:42:18.244Z,11.30
2022-12-29T02:43:10.876Z,10.77
2022-12-29T02:44:29.991Z,10.13
2022-12-29T02:45:37.021Z,13.30
2022-12-29T02:46:37.222Z,10.43
2022-12-29T02:47:29.982Z,11.07
2022-12-29T02:48:21.580Z,10.90
2022-12-29T02:49:08.380Z,11.25
2022-12-29T02:50:36.696Z,12.57
2022-12-29T02:51:31.263Z,12.23
2022-12-29T02:52:20.769Z,11.23
2022-12-29T02:53:17.309Z,11.18
2022-12-29T02:54:23.257Z,10.73
2022-12-29T02:55:12.757Z,14.57
2022-12-29T02:55:59.567Z,13.38
2022-12-29T02:56:46.501Z,12.32
2022-12-29T02:57:35.813Z,11.15
2022-12-29T02:58:24.359Z,10.65
2022-12-29T02:59:11.567Z,11.05
2022-12-29T03:00:12.616Z,14.05
2022-12-29T03:01:40.289Z,11.63
2022-12-29T03:02:27.266Z,13.75
2022-12-29T03:03:43.106Z,11.75
2022-12-29T03:04:43.500Z,11.82
2022-12-29T03:06:11.597Z,10.85
2022-12-29T03:07:04.484Z,9.63
2022-12-29T03:08:13.104Z,11.82
2022-12-29T03:09:06.704Z,14.18
2022-12-29T03:10:15.189Z,11.43
2022-12-29T03:11:38.668Z,11.65
2022-12-29T03:12:50.010Z,16.55
2022-12-29T03:14:11.562Z,14.13
2022-12-29T03:15:30.436Z,12.48
2022-12-29T03:16:22.630Z,13.70
2022-12-29T03:17:54.116Z,11.20
2022-12-29T03:19:16.949Z,13.05
2022-12-29T03:20:10.648Z,12.90
2022-12-29T03:21:05.339Z,12.60
2022-12-29T03:22:28.525Z,12.15
2022-12-29T03:23:15.695Z,12.63
2022-12-29T03:24:03.533Z,11.32
2022-12-29T03:24:53.459Z,14.52
2022-12-29T03:25:44.986Z,11.15
2022-12-29T03:26:32.287Z,12.45
2022-12-29T03:27:23.146Z,12.45
2022-12-29T03:28:13.977Z,12.65
2022-12-29T03:29:01.005Z,11.65
2022-12-29T03:29:54.438Z,14.23
2022-12-29T03:30:42.440Z,12.23
2022-12-29T03:31:29.566Z,12.23
2022-12-29T03:32:17.829Z,11.40
2022-12-29T03:33:07.595Z,11.05
2022-12-29T03:33:55.035Z,13.70
2022-12-29T03:34:42.107Z,10.18
2022-12-29T03:35:31.756Z,13.02
2022-12-29T03:36:28.105Z,14.68
2022-12-29T03:37:18.124Z,13.13
2022-12-29T03:38:12.985Z,14.43
2022-12-29T03:39:05.256Z,13.77
2022-12-29T03:39:52.386Z,15.25
2022-12-29T03:40:42.187Z,14.52
2022-12-29T03:41:32.196Z,12.15
2022-12-29T03:42:21.735Z,12.37
2022-12-29T03:43:08.728Z,14.30
2022-12-29T03:43:55.600Z,14.63
2022-12-29T03:44:44.347Z,13.88
2022-12-29T03:45:31.278Z,15.00
2022-12-29T03:46:18.513Z,13.88
2022-12-29T03:47:05.634Z,14.38
2022-12-29T03:47:54.381Z,13.93
2022-12-29T03:48:41.335Z,13.38
2022-12-29T03:49:28.263Z,14.15
2022-12-29T03:50:15.592Z,14.80
2022-12-29T03:51:02.493Z,13.25
2022-12-29T03:51:51.909Z,14.32
2022-12-29T03:52:38.941Z,17.15
2022-12-29T03:53:25.895Z,13.55
2022-12-29T03:54:12.784Z,12.35
2022-12-29T03:54:59.712Z,14.48
2022-12-29T03:55:46.700Z,14.07
2022-12-29T03:56:33.534Z,13.15
2022-12-29T03:57:20.760Z,13.27
2022-12-29T03:58:07.547Z,12.88
2022-12-29T03:58:54.526Z,12.93
2022-12-29T03:59:41.346Z,12.65
2022-12-29T04:00:29.472Z,12.30
2022-12-29T04:01:16.387Z,13.27
2022-12-29T04:02:05.105Z,13.05
2022-12-29T04:02:52.262Z,14.35
2022-12-29T04:03:39.805Z,14.50
2022-12-29T04:04:26.706Z,12.88
2022-12-29T04:05:13.625Z,12.82
2022-12-29T04:06:01.272Z,16.35
2022-12-29T04:06:48.167Z,15.38
2022-12-29T04:07:35.006Z,14.50
2022-12-29T04:08:21.878Z,13.48
2022-12-29T04:09:08.829Z,15.18
2022-12-29T04:09:55.658Z,14.27
2022-12-29T04:10:42.557Z,16.15
2022-12-29T04:11:33.090Z,15.30
2022-12-29T04:12:20.405Z,14.05
2022-12-29T04:13:07.247Z,12.82
2022-12-29T04:13:54.325Z,13.70
2022-12-29T04:14:41.624Z,14.90
2022-12-29T04:15:28.516Z,13.75
2022-12-29T04:16:15.941Z,14.63
2022-12-29T04:17:02.958Z,15.57
2022-12-29T04:17:49.875Z,13.07
2022-12-29T04:18:36.735Z,12.80
2022-12-29T04:19:23.526Z,13.70
2022-12-29T04:20:29.352Z,12.18
2022-12-29T04:21:16.375Z,13.90
2022-12-29T04:22:05.199Z,11.68
2022-12-29T04:23:00.227Z,12.20
2022-12-29T04:23:47.118Z,12.68
2022-12-29T04:24:33.999Z,12.07
2022-12-29T04:25:20.827Z,14.55
2022-12-29T04:26:08.797Z,16.37
2022-12-29T04:26:55.765Z,17.27
2022-12-29T04:27:42.695Z,12.32
2022-12-29T04:28:30.177Z,14.15
2022-12-29T04:29:17.447Z,13.13
2022-12-29T04:30:04.741Z,14.90
2022-12-29T04:30:51.946Z,14.13
2022-12-29T04:31:38.845Z,13.62
2022-12-29T04:32:25.736Z,14.27
2022-12-29T04:33:12.784Z,12.45
2022-12-29T04:34:01.163Z,14.25
2022-12-29T04:34:47.984Z,13.18
2022-12-29T04:35:35.025Z,14.05
2022-12-29T04:36:27.844Z,15.15
2022-12-29T04:37:16.726Z,13.80
2022-12-29T04:38:04.198Z,13.48
2022-12-29T04:38:51.072Z,12.48
2022-12-29T04:39:37.942Z,13.40
2022-12-29T04:40:25.031Z,12.80
2022-12-29T04:41:11.893Z,15.65
2022-12-29T04:41:58.707Z,15.90
2022-12-29T04:42:45.587Z,10.82
2022-12-29T04:43:32.498Z,13.20
2022-12-29T04:44:19.327Z,13.90
2022-12-29T04:45:06.921Z,14.15
2022-12-29T04:45:53.839Z,13.35
2022-12-29T04:46:40.804Z,15.15
2022-12-29T04:47:27.607Z,15.98
2022-12-29T04:48:15.206Z,12.82
2022-12-29T04:49:05.802Z,13.18
2022-12-29T04:50:39.904Z,12.98
2022-12-29T04:51:26.789Z,13.55
2022-12-29T04:52:13.628Z,13.77
2022-12-29T04:53:00.515Z,14.55
2022-12-29T04:53:47.357Z,12.18
2022-12-29T04:54:34.207Z,11.73
2022-12-29T04:55:21.146Z,12.13
2022-12-29T04:56:08.214Z,11.85
2022-12-29T04:56:55.058Z,14.07
2022-12-29T04:57:42.122Z,12.90
2022-12-29T04:58:28.961Z,12.43
2022-12-29T04:59:15.810Z,11.95
2022-12-29T05:00:02.929Z,11.15
2022-12-29T05:00:49.834Z,11.10
2022-12-29T05:01:36.783Z,10.40
2022-12-29T05:02:24.104Z,10.65
2022-12-29T05:03:11.239Z,11.02
2022-12-29T05:03:58.401Z,10.13
2022-12-29T05:04:45.363Z,12.73
2022-12-29T05:05:32.216Z,11.32
2022-12-29T05:06:19.055Z,11.32
2022-12-29T05:07:05.944Z,13.07
2022-12-29T05:07:52.768Z,11.38
2022-12-29T05:08:39.618Z,11.05
2022-12-29T05:09:26.477Z,11.73
2022-12-29T05:10:13.377Z,11.20
2022-12-29T05:11:01.243Z,12.45
2022-12-29T05:11:48.103Z,12.30
2022-12-29T05:12:36.170Z,14.90
2022-12-29T05:13:23.021Z,10.98
2022-12-29T05:14:09.919Z,11.57
2022-12-29T05:14:56.779Z,11.15
2022-12-29T05:15:49.569Z,12.90
2022-12-29T05:16:36.561Z,12.95
2022-12-29T05:17:23.483Z,11.73
2022-12-29T05:18:10.348Z,13.40
2022-12-29T05:18:57.174Z,13.05
2022-12-29T05:19:43.998Z,14.70
2022-12-29T05:20:30.835Z,15.40
2022-12-29T05:21:17.659Z,11.27
2022-12-29T05:22:04.543Z,12.00
2022-12-29T05:22:51.433Z,16.42
2022-12-29T05:23:38.291Z,12.60
2022-12-29T05:24:25.098Z,16.20
2022-12-29T05:25:12.016Z,10.32
2022-12-29T05:25:58.823Z,10.32
2022-12-29T05:26:45.648Z,12.05
2022-12-29T05:27:32.528Z,12.10
2022-12-29T05:28:20.386Z,12.07
2022-12-29T05:29:07.222Z,11.20
2022-12-29T05:29:54.561Z,10.82
2022-12-29T05:30:41.409Z,10.10
2022-12-29T05:31:28.518Z,9.75
2022-12-29T05:32:15.400Z,9.38
2022-12-29T05:33:02.377Z,11.50
2022-12-29T05:33:49.249Z,14.77
2022-12-29T05:34:36.128Z,13.45
2022-12-29T05:35:22.940Z,9.68
2022-12-29T05:36:10.630Z,10.80
2022-12-29T05:36:57.449Z,10.23
2022-12-29T05:37:44.403Z,10.65
2022-12-29T05:38:31.267Z,10.50
2022-12-29T05:39:18.269Z,10.15
2022-12-29T05:40:05.848Z,9.73
2022-12-29T05:40:52.659Z,10.00
2022-12-29T05:41:39.477Z,9.27
2022-12-29T05:42:26.358Z,14.55
2022-12-29T05:43:13.213Z,9.48
2022-12-29T05:44:00.134Z,11.38
2022-12-29T05:44:46.979Z,9.32
2022-12-29T05:45:33.787Z,8.98
2022-12-29T05:46:20.673Z,9.95
2022-12-29T05:47:07.786Z,9.82
2022-12-29T05:47:54.689Z,10.48
2022-12-29T05:48:41.543Z,11.25
2022-12-29T05:49:28.408Z,10.55
2022-12-29T05:50:15.272Z,11.57
2022-12-29T05:51:02.140Z,11.25
2022-12-29T05:51:49.007Z,12.05
2022-12-29T05:52:35.828Z,11.70
2022-12-29T05:53:22.664Z,11.63
2022-12-29T05:54:09.513Z,10.10
2022-12-29T05:54:56.378Z,9.82
2022-12-29T05:55:48.529Z,11.07
2022-12-29T05:56:35.807Z,11.52
2022-12-29T05:57:22.687Z,11.98
2022-12-29T05:58:09.538Z,10.80
2022-12-29T05:58:56.367Z,11.80
2022-12-29T05:59:43.203Z,11.27
2022-12-29T06:00:30.051Z,14.85
2022-12-29T06:01:17.136Z,13.20
2022-12-29T06:02:04.383Z,13.00
2022-12-29T06:02:51.510Z,12.27
2022-12-29T06:03:42.951Z,11.80
2022-12-29T06:04:32.980Z,12.13
2022-12-29T06:05:20.075Z,11.82
2022-12-29T06:06:07.119Z,11.02
2022-12-29T06:06:53.958Z,10.48
2022-12-29T06:07:40.887Z,11.07
2022-12-29T06:08:27.809Z,11.00
2022-12-29T06:09:14.782Z,11.95
2022-12-29T06:10:01.764Z,14.73
2022-12-29T06:10:48.630Z,12.55
2022-12-29T06:11:35.748Z,12.60
2022-12-29T06:12:22.598Z,12.30
2022-12-29T06:13:10.172Z,10.98
2022-12-29T06:13:57.014Z,12.93
2022-12-29T06:14:43.989Z,20.55
2022-12-29T06:15:30.937Z,11.50
2022-12-29T06:16:17.829Z,10.82
2022-12-29T06:17:04.865Z,14.77
2022-12-29T06:17:51.708Z,11.25
2022-12-29T06:18:38.568Z,10.55
2022-12-29T06:19:25.468Z,13.27
2022-12-29T06:20:12.347Z,12.05
2022-12-29T06:21:03.765Z,10.93
2022-12-29T06:21:50.604Z,11.60
2022-12-29T06:22:37.908Z,10.40
2022-12-29T06:23:24.730Z,11.40
2022-12-29T06:24:12.238Z,13.05
2022-12-29T06:25:04.557Z,9.95
2022-12-29T06:25:52.209Z,14.38
2022-12-29T06:26:39.048Z,9.40
2022-12-29T06:27:26.048Z,11.43
2022-12-29T06:28:13.918Z,11.95
2022-12-29T06:29:01.325Z,12.13
2022-12-29T06:29:48.208Z,10.60
2022-12-29T06:30:35.125Z,11.15
2022-12-29T06:31:22.119Z,11.30
2022-12-29T06:32:09.159Z,14.05
2022-12-29T06:32:56.119Z,10.25
2022-12-29T06:33:45.210Z,10.02
2022-12-29T06:34:35.228Z,10.93
2022-12-29T06:35:23.601Z,9.70
2022-12-29T06:36:10.415Z,9.40
2022-12-29T06:36:57.243Z,10.70
2022-12-29T06:37:44.470Z,12.02
2022-12-29T06:38:31.442Z,12.18
2022-12-29T06:39:18.336Z,11.18
2022-12-29T06:40:05.711Z,11.80
2022-12-29T06:40:52.610Z,11.82
2022-12-29T06:41:39.448Z,12.77
2022-12-29T06:42:26.344Z,10.13
2022-12-29T06:43:13.313Z,13.20
2022-12-29T06:44:00.186Z,14.95
2022-12-29T06:44:47.072Z,14.10
2022-12-29T06:45:33.999Z,11.50
2022-12-29T06:46:21.003Z,10.65
2022-12-29T06:47:07.957Z,12.32
2022-12-29T06:47:54.779Z,12.50
2022-12-29T06:48:43.331Z,12.88
2022-12-29T06:49:30.232Z,12.70
2022-12-29T06:50:17.114Z,13.18
2022-12-29T06:51:04.563Z,12.95
2022-12-29T06:51:51.436Z,13.32
2022-12-29T06:52:38.317Z,13.45
2022-12-29T06:53:25.267Z,16.98
2022-12-29T06:54:12.206Z,12.90
2022-12-29T06:55:00.072Z,12.55
2022-12-29T06:55:46.927Z,12.43
2022-12-29T06:56:33.830Z,14.20
2022-12-29T06:57:20.850Z,15.40
2022-12-29T06:58:07.679Z,11.57
2022-12-29T06:58:54.497Z,11.70
2022-12-29T06:59:41.319Z,12.13
2022-12-29T07:00:28.238Z,14.95
2022-12-29T07:01:15.128Z,14.60
2022-12-29T07:02:03.421Z,12.90
2022-12-29T07:02:50.865Z,12.73
2022-12-29T07:03:37.836Z,12.85
2022-12-29T07:04:24.928Z,11.10
2022-12-29T07:05:11.982Z,14.63
2022-12-29T07:05:59.308Z,13.00
2022-12-29T07:06:46.168Z,13.35
2022-12-29T07:07:33.025Z,12.30
2022-12-29T07:08:20.599Z,12.37
2022-12-29T07:09:07.998Z,12.68
2022-12-29T07:09:54.812Z,14.27
2022-12-29T07:10:41.746Z,12.52
2022-12-29T07:11:28.576Z,11.95
2022-12-29T07:12:15.629Z,11.85
2022-12-29T07:13:02.520Z,14.98
2022-12-29T07:13:49.366Z,11.93
2022-12-29T07:14:42.671Z,11.23
2022-12-29T07:15:30.350Z,12.02
2022-12-29T07:16:17.427Z,14.07
2022-12-29T07:17:07.427Z,14.38
2022-12-29T07:17:54.429Z,12.75
2022-12-29T07:18:41.262Z,12.55
2022-12-29T07:19:28.203Z,13.23
2022-12-29T07:20:15.084Z,13.73
2022-12-29T07:21:02.086Z,13.10
2022-12-29T07:21:49.013Z,14.43
2022-12-29T07:22:36.796Z,10.32
2022-12-29T07:23:23.719Z,11.75
2022-12-29T07:24:10.679Z,12.02
2022-12-29T07:24:57.529Z,13.82
2022-12-29T07:25:44.319Z,11.88
2022-12-29T07:26:36.101Z,11.12
2022-12-29T07:27:23.451Z,11.32
2022-12-29T07:28:10.268Z,10.30
2022-12-29T07:28:57.104Z,11.65
2022-12-29T07:29:43.957Z,13.55
2022-12-29T07:30:30.938Z,11.50
2022-12-29T07:31:20.210Z,11.27
2022-12-29T07:32:07.166Z,10.18
2022-12-29T07:32:54.259Z,11.23
2022-12-29T07:33:41.078Z,10.98
2022-12-29T07:34:27.918Z,12.13
2022-12-29T07:35:14.921Z,14.35
2022-12-29T07:36:01.791Z,11.93
2022-12-29T07:36:48.652Z,12.10
2022-12-29T07:37:36.071Z,11.30
2022-12-29T07:38:22.950Z,11.40
2022-12-29T07:39:09.893Z,11.12
2022-12-29T07:39:56.789Z,16.17
2022-12-29T07:40:44.178Z,12.23
2022-12-29T07:41:31.161Z,11.43
2022-12-29T07:42:18.067Z,12.48
2022-12-29T07:43:05.268Z,12.60
2022-12-29T07:43:52.184Z,11.43
2022-12-29T07:44:39.050Z,12.07
2022-12-29T07:45:25.877Z,12.02
2022-12-29T07:46:54.421Z,12.57
2022-12-29T07:47:19.550Z,10.18
2022-12-29T07:48:08.830Z,11.50
2022-12-29T07:48:55.712Z,14.15
2022-12-29T07:49:42.558Z,11.48
2022-12-29T07:50:29.906Z,13.32
2022-12-29T07:51:16.757Z,12.00
2022-12-29T07:52:03.727Z,13.50
2022-12-29T07:52:50.679Z,12.48
2022-12-29T07:53:37.548Z,11.98
2022-12-29T07:54:24.888Z,12.35
2022-12-29T07:55:11.749Z,13.48
2022-12-29T07:55:59.318Z,14.00
2022-12-29T07:56:46.716Z,12.98
2022-12-29T07:57:33.685Z,12.37
2022-12-29T07:58:20.518Z,12.52
2022-12-29T07:59:07.476Z,10.68
2022-12-29T07:59:54.317Z,13.38
2022-12-29T08:00:41.278Z,13.73
2022-12-29T08:01:28.260Z,12.77
2022-12-29T08:02:15.314Z,15.23
2022-12-29T08:03:02.366Z,12.98
2022-12-29T08:03:53.969Z,14.27
2022-12-29T08:04:43.799Z,13.50
2022-12-29T08:05:32.258Z,16.73
2022-12-29T08:06:19.690Z,13.65
2022-12-29T08:07:06.636Z,13.23
2022-12-29T08:07:53.460Z,13.23
2022-12-29T08:08:40.324Z,13.07
2022-12-29T08:09:27.145Z,13.05
2022-12-29T08:10:14.997Z,18.00
2022-12-29T08:11:01.820Z,15.80
2022-12-29T08:11:48.811Z,14.10
2022-12-29T08:12:35.628Z,18.45
2022-12-29T08:13:22.458Z,17.45
2022-12-29T08:14:09.278Z,16.15
2022-12-29T08:14:56.067Z,14.50
2022-12-29T08:15:43.018Z,18.35
2022-12-29T08:16:29.960Z,20.25
2022-12-29T08:17:16.987Z,17.73
2022-12-29T08:18:04.966Z,19.02
2022-12-29T08:18:51.792Z,21.20
2022-12-29T08:19:39.055Z,23.35
2022-12-29T08:20:25.966Z,18.90
2022-12-29T08:21:13.297Z,20.58
2022-12-29T08:22:00.233Z,19.17
2022-12-29T08:22:47.198Z,20.80
2022-12-29T08:23:34.477Z,24.90
2022-12-29T08:24:21.533Z,19.98
2022-12-29T08:25:08.903Z,20.55
2022-12-29T08:26:04.079Z,23.12
2022-12-29T08:26:51.021Z,23.48
2022-12-29T08:27:37.925Z,20.48
2022-12-29T08:28:24.773Z,20.23
2022-12-29T08:29:11.688Z,20.30
2022-12-29T08:29:58.530Z,20.73
2022-12-29T08:30:45.412Z,22.52
2022-12-29T08:31:32.380Z,23.27
2022-12-29T08:32:19.578Z,24.02
2022-12-29T08:33:06.397Z,22.30
2022-12-29T08:33:53.810Z,21.90
2022-12-29T08:34:40.746Z,20.02
2022-12-29T08:35:27.646Z,21.55
2022-12-29T08:36:14.513Z,21.45
2022-12-29T08:37:01.424Z,19.98
2022-12-29T08:37:48.252Z,23.20
2022-12-29T08:38:35.229Z,19.92
2022-12-29T08:39:22.218Z,18.35
2022-12-29T08:40:09.877Z,20.52
2022-12-29T08:40:57.695Z,22.55
2022-12-29T08:41:44.574Z,21.48
2022-12-29T08:42:32.683Z,24.08
2022-12-29T08:43:19.718Z,21.75
2022-12-29T08:44:07.090Z,20.48
2022-12-29T08:44:53.939Z,24.25
2022-12-29T08:45:40.778Z,20.55
2022-12-29T08:46:27.635Z,19.67
2022-12-29T08:47:14.560Z,24.75
2022-12-29T08:48:01.486Z,21.02
2022-12-29T08:48:48.376Z,21.58
2022-12-29T08:49:35.206Z,19.02
2022-12-29T08:50:22.018Z,22.33
2022-12-29T08:51:09.118Z,19.48
2022-12-29T08:51:55.964Z,19.15
2022-12-29T08:52:42.827Z,20.50
2022-12-29T08:53:29.739Z,20.58
2022-12-29T08:54:16.557Z,17.62
2022-12-29T08:55:03.458Z,23.80
2022-12-29T08:56:02.141Z,21.95
2022-12-29T08:56:51.432Z,20.35
2022-12-29T08:57:38.273Z,20.95
2022-12-29T08:58:25.841Z,20.65
2022-12-29T08:59:12.694Z,23.62
2022-12-29T08:59:59.589Z,24.98
2022-12-29T09:00:46.438Z,21.67
2022-12-29T09:01:34.825Z,19.05
2022-12-29T09:02:24.573Z,21.05
2022-12-29T09:03:12.038Z,21.23
2022-12-29T09:04:16.727Z,19.45
2022-12-29T09:05:04.799Z,23.17
2022-12-29T09:05:53.057Z,22.95
2022-12-29T09:06:40.668Z,19.75
2022-12-29T09:07:27.787Z,17.40
2022-12-29T09:08:14.652Z,20.23
2022-12-29T09:09:01.876Z,21.05
2022-12-29T09:09:48.823Z,17.70
2022-12-29T09:10:35.712Z,17.62
2022-12-29T09:11:24.888Z,19.87
2022-12-29T09:12:11.880Z,18.87
2022-12-29T09:12:58.776Z,18.67
2022-12-29T09:13:45.765Z,19.75
2022-12-29T09:14:32.660Z,18.27
2022-12-29T09:15:19.517Z,20.80
2022-12-29T09:16:06.836Z,19.73
2022-12-29T09:17:13.119Z,21.25
2022-12-29T09:17:59.969Z,20.20
2022-12-29T09:18:46.861Z,21.25
2022-12-29T09:19:33.697Z,21.25
2022-12-29T09:20:21.000Z,17.98
2022-12-29T09:21:08.780Z,18.15
2022-12-29T09:21:55.681Z,19.60
2022-12-29T09:22:43.202Z,21.40
2022-12-29T09:23:30.933Z,21.50
2022-12-29T09:24:17.872Z,17.58
2022-12-29T09:25:05.472Z,19.80
2022-12-29T09:25:52.570Z,20.00
2022-12-29T09:26:46.712Z,19.73
2022-12-29T09:27:33.967Z,18.77
2022-12-29T09:28:21.406Z,16.58
2022-12-29T09:29:08.309Z,21.55
2022-12-29T09:29:55.137Z,19.65
2022-12-29T09:30:42.889Z,19.17
2022-12-29T09:31:29.815Z,17.42
2022-12-29T09:32:18.701Z,20.27
2022-12-29T09:33:06.322Z,19.73
2022-12-29T09:33:53.175Z,25.20
2022-12-29T09:34:40.166Z,18.77
2022-12-29T09:35:27.011Z,19.27
2022-12-29T09:36:13.823Z,19.20
2022-12-29T09:37:00.714Z,21.52
2022-12-29T09:37:47.641Z,20.40
2022-12-29T09:38:34.545Z,19.27
2022-12-29T09:39:21.379Z,19.05
2022-12-29T09:40:09.178Z,18.10
2022-12-29T09:41:01.955Z,21.17
2022-12-29T09:41:57.967Z,19.15
2022-12-29T09:42:58.998Z,19.10
2022-12-29T09:44:29.053Z,20.10
2022-12-29T09:45:16.197Z,19.80
2022-12-29T09:46:08.958Z,21.12
2022-12-29T09:46:56.442Z,17.10
2022-12-29T09:47:46.790Z,17.98
2022-12-29T09:48:36.602Z,18.65
2022-12-29T09:49:42.251Z,20.67
2022-12-29T09:50:34.710Z,17.62
2022-12-29T09:51:24.143Z,18.02
2022-12-29T09:52:17.008Z,21.00
2022-12-29T09:53:12.812Z,18.52
2022-12-29T09:54:03.782Z,22.13
2022-12-29T09:55:09.112Z,21.05
2022-12-29T09:56:02.681Z,22.00
2022-12-29T09:56:50.047Z,20.15
2022-12-29T09:57:56.000Z,19.65
2022-12-29T09:58:52.831Z,22.80
2022-12-29T09:59:42.358Z,20.88
2022-12-29T10:00:42.477Z,19.33
2022-12-29T10:01:33.629Z,18.58
2022-12-29T10:02:33.904Z,22.08
2022-12-29T10:03:21.923Z,20.08
2022-12-29T10:04:11.399Z,19.90
2022-12-29T10:04:58.622Z,21.92
2022-12-29T10:05:58.040Z,19.85
2022-12-29T10:07:28.502Z,20.90
2022-12-29T10:08:26.892Z,23.33
2022-12-29T10:09:21.683Z,18.00
2022-12-29T10:10:31.986Z,20.50
2022-12-29T10:11:35.690Z,20.42
2022-12-29T10:13:21.140Z,21.73
2022-12-29T10:14:19.989Z,21.52
2022-12-29T10:15:12.611Z,19.17
2022-12-29T10:16:31.750Z,17.27
2022-12-29T10:17:29.471Z,18.02
2022-12-29T10:18:42.061Z,19.02
2022-12-29T10:19:47.412Z,19.40
2022-12-29T10:20:58.501Z,20.12
2022-12-29T10:23:05.914Z,19.42
2022-12-29T10:23:54.360Z,19.58
2022-12-29T10:24:41.800Z,18.33
2022-12-29T10:25:33.195Z,18.90
2022-12-29T10:26:41.116Z,21.37
2022-12-29T10:27:27.991Z,22.42
2022-12-29T10:28:30.300Z,19.48
2022-12-29T10:29:21.954Z,18.98
2022-12-29T10:30:13.634Z,18.52
2022-12-29T10:31:06.843Z,20.02
2022-12-29T10:32:00.645Z,20.17
2022-12-29T10:32:57.012Z,22.10
2022-12-29T10:33:44.004Z,18.83
2022-12-29T10:34:30.828Z,25.05
2022-12-29T10:35:20.162Z,19.87
2022-12-29T10:36:16.103Z,22.13
2022-12-29T10:37:54.641Z,19.77
2022-12-29T10:39:00.080Z,17.92
2022-12-29T10:39:51.000Z,20.00
2022-12-29T10:40:42.991Z,21.83
2022-12-29T10:42:00.606Z,21.37
2022-12-29T10:42:53.577Z,20.08
2022-12-29T10:43:48.857Z,21.62
2022-12-29T10:44:35.948Z,19.85
2022-12-29T10:45:25.911Z,18.90
2022-12-29T10:46:15.835Z,21.10
2022-12-29T10:47:09.633Z,19.77
2022-12-29T10:48:06.883Z,21.45
2022-12-29T10:48:53.867Z,20.00
2022-12-29T10:49:43.842Z,23.33
2022-12-29T10:50:31.087Z,21.70
2022-12-29T10:51:25.073Z,25.17
2022-12-29T10:52:12.992Z,18.77
2022-12-29T10:53:02.662Z,17.20
2022-12-29T10:53:56.843Z,19.60
2022-12-29T10:55:04.073Z,17.48
2022-12-29T10:55:51.494Z,20.45
2022-12-29T10:56:53.255Z,19.80
2022-12-29T10:57:45.487Z,19.77
2022-12-29T10:58:33.723Z,19.70
2022-12-29T10:59:24.112Z,19.80
2022-12-29T11:00:21.869Z,20.73
2022-12-29T11:01:11.954Z,20.65
2022-12-29T11:02:08.242Z,19.20